createdAt,value
2018-06-13T00:00:26.645Z,12.76
2018-06-13T00:01:26.641Z,12.83
2018-06-13T00:02:26.624Z,12.74
2018-06-13T00:03:26.620Z,12.77
2018-06-13T00:04:26.354Z,12.74
2018-06-13T00:05:26.353Z,12.77
2018-06-13T00:06:26.343Z,12.76
2018-06-13T00:07:26.335Z,12.76
2018-06-13T00:08:26.073Z,12.73
2018-06-13T00:09:26.321Z,12.76
2018-06-13T00:10:26.569Z,12.7
2018-06-13T00:11:26.617Z,12.7
2018-06-13T00:12:26.561Z,12.65
2018-06-13T00:13:26.288Z,12.62
2018-06-13T00:14:26.029Z,12.61
2018-06-13T00:15:26.020Z,12.56
2018-06-13T00:16:26.648Z,12.62
2018-06-13T00:17:26.520Z,12.62
2018-06-13T00:18:26.614Z,12.58
2018-06-13T00:19:26.516Z,12.61
2018-06-13T00:20:26.502Z,12.59
2018-06-13T00:21:26.241Z,12.65
2018-06-13T00:22:26.484Z,12.58
2018-06-13T00:23:26.477Z,12.62
2018-06-13T00:24:26.220Z,12.56
2018-06-13T00:25:26.471Z,12.51
2018-06-13T00:26:26.462Z,12.47
2018-06-13T00:27:26.454Z,12.51
2018-06-13T00:28:26.545Z,12.52
2018-06-13T00:29:26.443Z,12.51
2018-06-13T00:30:26.180Z,12.51
2018-06-13T00:31:26.423Z,12.53
2018-06-13T00:32:26.472Z,12.55
2018-06-13T00:33:26.412Z,12.47
2018-06-13T00:34:26.406Z,12.53
2018-06-13T00:35:26.395Z,12.59
2018-06-13T00:36:26.394Z,12.55
2018-06-13T00:37:26.125Z,12.58
2018-06-13T00:38:26.383Z,12.53
2018-06-13T00:39:26.112Z,12.51
2018-06-13T00:40:26.368Z,12.51
2018-06-13T00:41:26.353Z,12.44
2018-06-13T00:42:26.354Z,12.53
2018-06-13T00:43:26.337Z,12.55
2018-06-13T00:44:26.340Z,12.43
2018-06-13T00:45:26.076Z,12.47
2018-06-13T00:46:26.319Z,12.55
2018-06-13T00:47:26.356Z,12.4
2018-06-13T00:48:26.299Z,12.41
2018-06-13T00:49:26.043Z,12.44
2018-06-13T00:50:26.031Z,12.48
2018-06-13T00:51:26.283Z,12.44
2018-06-13T00:52:26.283Z,12.45
2018-06-13T00:53:26.280Z,12.43
2018-06-13T00:54:26.261Z,12.44
2018-06-13T00:55:25.999Z,12.44
2018-06-13T00:56:25.991Z,12.44
2018-06-13T00:57:26.237Z,12.45
2018-06-13T00:58:25.976Z,12.41
2018-06-13T00:59:25.979Z,12.4
2018-06-13T01:00:25.963Z,12.4
2018-06-13T01:01:25.957Z,12.37
2018-06-13T01:02:25.690Z,12.44
2018-06-13T01:03:26.203Z,12.44
2018-06-13T01:04:25.936Z,12.45
2018-06-13T01:05:25.928Z,12.41
2018-06-13T01:06:25.926Z,12.4
2018-06-13T01:07:25.913Z,12.41
2018-06-13T01:08:25.910Z,12.26
2018-06-13T01:09:26.156Z,12.34
2018-06-13T01:10:25.895Z,12.33
2018-06-13T01:11:26.152Z,12.38
2018-06-13T01:12:26.142Z,12.34
2018-06-13T01:13:26.130Z,12.33
2018-06-13T01:14:26.131Z,12.4
2018-06-13T01:15:25.857Z,12.38
2018-06-13T01:16:25.856Z,12.37
2018-06-13T01:17:26.110Z,12.31
2018-06-13T01:18:25.837Z,12.29
2018-06-13T01:19:25.574Z,12.34
2018-06-13T01:20:26.085Z,12.26
2018-06-13T01:21:26.074Z,12.2
2018-06-13T01:22:26.070Z,12.37
2018-06-13T01:23:26.058Z,12.28
2018-06-13T01:24:26.054Z,12.22
2018-06-13T01:25:26.048Z,12.2
2018-06-13T01:26:25.528Z,12.2
2018-06-13T01:27:26.031Z,12.23
2018-06-13T01:28:25.768Z,12.2
2018-06-13T01:29:25.919Z,12.16
2018-06-13T01:30:25.754Z,12.15
2018-06-13T01:31:25.745Z,12.18
2018-06-13T01:32:25.742Z,12.16
2018-06-13T01:33:25.731Z,12.2
2018-06-13T01:34:25.986Z,12.16
2018-06-13T01:35:25.975Z,12.15
2018-06-13T01:36:25.980Z,12.13
2018-06-13T01:37:25.961Z,12.15
2018-06-13T01:38:25.696Z,12.2
2018-06-13T01:39:25.688Z,12.11
2018-06-13T01:40:25.686Z,12.13
2018-06-13T01:41:25.679Z,12.15
2018-06-13T01:42:25.673Z,12.11
2018-06-13T01:43:25.920Z,12.13
2018-06-13T01:44:25.920Z,12.01
2018-06-13T01:45:25.650Z,12.05
2018-06-13T01:46:25.906Z,12.1
2018-06-13T01:47:25.889Z,12.13
2018-06-13T01:48:25.627Z,12.13
2018-06-13T01:49:25.920Z,12.08
2018-06-13T01:50:25.608Z,12.15
2018-06-13T01:51:25.860Z,12.03
2018-06-13T01:52:25.599Z,12.03
2018-06-13T01:53:25.589Z,12.08
2018-06-13T01:54:25.836Z,12.03
2018-06-13T01:55:25.829Z,12.13
2018-06-13T01:56:25.824Z,12.04
2018-06-13T01:57:25.819Z,12.07
2018-06-13T01:58:25.808Z,12.01
2018-06-13T01:59:25.800Z,12.03
2018-06-13T02:00:25.798Z,12.16
2018-06-13T02:01:25.792Z,12.05
2018-06-13T02:02:25.781Z,12.05
2018-06-13T02:03:25.766Z,12.01
2018-06-13T02:04:25.761Z,11.98
2018-06-13T02:05:25.498Z,12.05
2018-06-13T02:06:25.759Z,12.04
2018-06-13T02:07:25.486Z,12.05
2018-06-13T02:08:25.745Z,11.95
2018-06-13T02:09:25.727Z,11.97
2018-06-13T02:10:25.461Z,12.04
2018-06-13T02:11:25.708Z,12.04
2018-06-13T02:12:25.702Z,11.95
2018-06-13T02:13:25.179Z,11.94
2018-06-13T02:14:25.431Z,11.91
2018-06-13T02:15:25.687Z,11.89
2018-06-13T02:16:25.680Z,11.88
2018-06-13T02:17:25.413Z,11.95
2018-06-13T02:18:25.658Z,11.88
2018-06-13T02:19:25.647Z,11.82
2018-06-13T02:20:25.643Z,11.94
2018-06-13T02:21:25.630Z,11.94
2018-06-13T02:22:25.627Z,11.89
2018-06-13T02:23:25.625Z,11.78
2018-06-13T02:24:25.609Z,11.88
2018-06-13T02:25:25.607Z,11.78
2018-06-13T02:26:25.602Z,11.89
2018-06-13T02:27:25.444Z,11.79
2018-06-13T02:28:25.585Z,11.79
2018-06-13T02:29:25.578Z,11.89
2018-06-13T02:30:25.571Z,11.91
2018-06-13T02:31:25.303Z,11.91
2018-06-13T02:32:25.554Z,11.79
2018-06-13T02:33:25.553Z,11.88
2018-06-13T02:34:25.543Z,11.81
2018-06-13T02:35:25.537Z,11.97
2018-06-13T02:36:25.521Z,11.89
2018-06-13T02:37:25.512Z,11.89
2018-06-13T02:38:25.507Z,11.86
2018-06-13T02:39:25.501Z,11.89
2018-06-13T02:40:25.491Z,11.89
2018-06-13T02:41:25.495Z,11.91
2018-06-13T02:42:25.218Z,11.91
2018-06-13T02:43:25.473Z,11.89
2018-06-13T02:44:25.459Z,11.91
2018-06-13T02:45:25.193Z,11.89
2018-06-13T02:46:25.446Z,11.88
2018-06-13T02:47:25.437Z,11.95
2018-06-13T02:48:25.429Z,11.88
2018-06-13T02:49:25.425Z,11.94
2018-06-13T02:50:25.419Z,11.79
2018-06-13T02:51:25.402Z,11.89
2018-06-13T02:52:25.401Z,11.81
2018-06-13T02:53:25.400Z,11.85
2018-06-13T02:54:25.127Z,11.84
2018-06-13T02:55:25.121Z,11.84
2018-06-13T02:56:25.108Z,11.81
2018-06-13T02:57:25.097Z,11.76
2018-06-13T02:58:25.357Z,11.68
2018-06-13T02:59:25.347Z,11.78
2018-06-13T03:00:25.075Z,11.75
2018-06-13T03:01:25.330Z,11.71
2018-06-13T03:02:25.317Z,11.67
2018-06-13T03:03:25.062Z,11.73
2018-06-13T03:04:25.049Z,11.71
2018-06-13T03:05:25.044Z,11.63
2018-06-13T03:06:25.284Z,11.68
2018-06-13T03:07:25.281Z,11.66
2018-06-13T03:08:25.272Z,11.67
2018-06-13T03:09:25.266Z,11.7
2018-06-13T03:10:25.256Z,11.7
2018-06-13T03:11:25.257Z,11.67
2018-06-13T03:12:25.237Z,11.64
2018-06-13T03:13:24.979Z,11.53
2018-06-13T03:14:25.222Z,11.64
2018-06-13T03:15:24.964Z,11.59
2018-06-13T03:16:25.216Z,11.59
2018-06-13T03:17:24.948Z,11.63
2018-06-13T03:18:25.192Z,11.45
2018-06-13T03:19:25.205Z,11.56
2018-06-13T03:20:24.916Z,11.57
2018-06-13T03:21:25.174Z,11.57
2018-06-13T03:22:24.903Z,11.56
2018-06-13T03:23:25.151Z,11.63
2018-06-13T03:24:25.147Z,11.57
2018-06-13T03:25:24.880Z,11.56
2018-06-13T03:26:24.873Z,11.48
2018-06-13T03:27:24.870Z,11.57
2018-06-13T03:28:25.119Z,11.59
2018-06-13T03:29:25.109Z,11.57
2018-06-13T03:30:25.106Z,11.6
2018-06-13T03:31:25.090Z,11.57
2018-06-13T03:32:25.077Z,11.61
2018-06-13T03:33:25.075Z,11.6
2018-06-13T03:34:25.063Z,11.64
2018-06-13T03:35:25.054Z,11.59
2018-06-13T03:36:25.052Z,11.51
2018-06-13T03:37:24.779Z,11.64
2018-06-13T03:38:24.775Z,11.66
2018-06-13T03:39:25.024Z,11.61
2018-06-13T03:40:24.755Z,11.6
2018-06-13T03:41:25.006Z,11.66
2018-06-13T03:42:24.742Z,11.59
2018-06-13T03:43:24.995Z,11.61
2018-06-13T03:44:24.770Z,11.7
2018-06-13T03:45:24.974Z,11.61
2018-06-13T03:46:24.970Z,11.61
2018-06-13T03:47:24.961Z,11.6
2018-06-13T03:48:24.696Z,11.63
2018-06-13T03:49:24.683Z,11.53
2018-06-13T03:50:24.941Z,11.6
2018-06-13T03:51:24.926Z,11.57
2018-06-13T03:52:24.916Z,11.61
2018-06-13T03:53:24.908Z,11.59
2018-06-13T03:54:24.900Z,11.59
2018-06-13T03:55:24.893Z,11.57
2018-06-13T03:56:24.629Z,11.66
2018-06-13T03:57:24.882Z,11.6
2018-06-13T03:58:24.611Z,11.63
2018-06-13T03:59:24.605Z,11.66
2018-06-13T04:00:24.592Z,11.52
2018-06-13T04:01:24.849Z,11.56
2018-06-13T04:02:24.834Z,11.59
2018-06-13T04:03:24.570Z,11.66
2018-06-13T04:04:24.819Z,11.63
2018-06-13T04:05:24.808Z,11.63
2018-06-13T04:06:24.549Z,11.64
2018-06-13T04:07:24.798Z,11.68
2018-06-13T04:08:24.791Z,11.67
2018-06-13T04:09:24.781Z,11.64
2018-06-13T04:10:24.517Z,11.59
2018-06-13T04:11:24.778Z,11.63
2018-06-13T04:12:24.756Z,11.7
2018-06-13T04:13:24.746Z,11.67
2018-06-13T04:14:24.738Z,11.68
2018-06-13T04:15:24.732Z,11.61
2018-06-13T04:16:24.718Z,11.6
2018-06-13T04:17:24.511Z,11.64
2018-06-13T04:18:24.703Z,11.71
2018-06-13T04:19:24.699Z,11.63
2018-06-13T04:20:24.689Z,11.68
2018-06-13T04:21:24.689Z,11.66
2018-06-13T04:22:24.792Z,11.7
2018-06-13T04:23:24.664Z,11.64
2018-06-13T04:24:24.659Z,11.68
2018-06-13T04:25:24.695Z,11.67
2018-06-13T04:26:24.643Z,11.67
2018-06-13T04:27:24.633Z,11.7
2018-06-13T04:28:24.627Z,11.79
2018-06-13T04:29:24.620Z,11.76
2018-06-13T04:30:24.682Z,11.79
2018-06-13T04:31:24.086Z,11.84
2018-06-13T04:32:24.078Z,11.84
2018-06-13T04:33:24.583Z,11.85
2018-06-13T04:34:24.581Z,11.78
2018-06-13T04:35:24.311Z,11.79
2018-06-13T04:36:24.309Z,11.81
2018-06-13T04:37:24.305Z,11.75
2018-06-13T04:38:24.544Z,11.75
2018-06-13T04:39:24.541Z,11.75
2018-06-13T04:40:24.272Z,11.81
2018-06-13T04:41:24.522Z,11.82
2018-06-13T04:42:24.511Z,11.79
2018-06-13T04:43:24.516Z,11.81
2018-06-13T04:44:23.986Z,11.79
2018-06-13T04:45:24.233Z,11.81
2018-06-13T04:46:23.962Z,11.84
2018-06-13T04:47:24.479Z,11.7
2018-06-13T04:48:24.470Z,11.7
2018-06-13T04:49:24.194Z,11.66
2018-06-13T04:50:24.191Z,11.68
2018-06-13T04:51:24.443Z,11.7
2018-06-13T04:52:24.428Z,11.71
2018-06-13T04:53:24.421Z,11.64
2018-06-13T04:54:24.158Z,11.64
2018-06-13T04:55:24.412Z,11.59
2018-06-13T04:56:24.143Z,11.66
2018-06-13T04:57:24.131Z,11.57
2018-06-13T04:58:24.582Z,11.52
2018-06-13T04:59:24.115Z,11.57
2018-06-13T05:00:24.113Z,11.59
2018-06-13T05:01:24.359Z,11.56
2018-06-13T05:02:24.090Z,11.48
2018-06-13T05:03:24.083Z,11.46
2018-06-13T05:04:24.332Z,11.53
2018-06-13T05:05:24.325Z,11.57
2018-06-13T05:06:24.058Z,11.53
2018-06-13T05:07:24.315Z,11.51
2018-06-13T05:08:24.300Z,11.52
2018-06-13T05:09:24.291Z,11.59
2018-06-13T05:10:24.028Z,11.66
2018-06-13T05:11:24.018Z,11.59
2018-06-13T05:12:24.027Z,11.63
2018-06-13T05:13:24.002Z,11.71
2018-06-13T05:14:23.996Z,11.67
2018-06-13T05:15:23.728Z,11.75
2018-06-13T05:16:24.246Z,11.78
2018-06-13T05:17:24.234Z,11.78
2018-06-13T05:18:24.216Z,11.82
2018-06-13T05:19:23.952Z,11.88
2018-06-13T05:20:24.201Z,11.97
2018-06-13T05:21:24.199Z,11.98
2018-06-13T05:22:24.181Z,12.05
2018-06-13T05:23:24.176Z,12.16
2018-06-13T05:24:23.917Z,12.15
2018-06-13T05:25:23.904Z,12.2
2018-06-13T05:26:24.155Z,12.19
2018-06-13T05:27:24.153Z,12.26
2018-06-13T05:28:24.137Z,12.31
2018-06-13T05:29:24.125Z,12.31
2018-06-13T05:30:23.864Z,12.29
2018-06-13T05:31:24.111Z,12.31
2018-06-13T05:32:23.847Z,12.37
2018-06-13T05:33:24.096Z,12.29
2018-06-13T05:34:24.179Z,12.23
2018-06-13T05:35:23.825Z,12.29
2018-06-13T05:36:24.079Z,12.25
2018-06-13T05:37:23.811Z,12.22
2018-06-13T05:38:24.061Z,12.22
2018-06-13T05:39:24.047Z,12.26
2018-06-13T05:40:24.054Z,12.23
2018-06-13T05:41:24.035Z,12.23
2018-06-13T05:42:23.768Z,12.2
2018-06-13T05:43:23.764Z,12.18
2018-06-13T05:44:24.022Z,12.16
2018-06-13T05:45:23.748Z,12.08
2018-06-13T05:46:24.004Z,12.08
2018-06-13T05:47:23.988Z,12.13
2018-06-13T05:48:23.468Z,12.05
2018-06-13T05:49:23.975Z,12.11
2018-06-13T05:50:23.966Z,12.1
2018-06-13T05:51:23.700Z,12.15
2018-06-13T05:52:23.692Z,12.1
2018-06-13T05:53:23.947Z,12.1
2018-06-13T05:54:23.689Z,12.13
2018-06-13T05:55:23.674Z,12.19
2018-06-13T05:56:23.406Z,12.15
2018-06-13T05:57:23.918Z,12.16
2018-06-13T05:58:23.906Z,12.16
2018-06-13T05:59:23.380Z,12.19
2018-06-13T06:00:23.636Z,12.2
2018-06-13T06:01:23.949Z,12.29
2018-06-13T06:02:23.625Z,12.29
2018-06-13T06:03:23.612Z,12.28
2018-06-13T06:04:23.857Z,12.28
2018-06-13T06:05:23.856Z,12.28
2018-06-13T06:06:23.892Z,12.4
2018-06-13T06:07:23.578Z,12.44
2018-06-13T06:08:23.831Z,12.45
2018-06-13T06:09:23.561Z,12.37
2018-06-13T06:10:24.246Z,12.56
2018-06-13T06:11:23.810Z,12.56
2018-06-13T06:12:23.800Z,12.61
2018-06-13T06:13:23.791Z,12.62
2018-06-13T06:14:23.785Z,12.59
2018-06-13T06:15:23.778Z,12.59
2018-06-13T06:16:23.514Z,12.59
2018-06-13T06:17:23.505Z,12.62
2018-06-13T06:18:23.948Z,12.73
2018-06-13T06:19:23.743Z,12.76
2018-06-13T06:20:23.738Z,12.76
2018-06-13T06:21:23.484Z,12.78
2018-06-13T06:22:23.724Z,12.8
2018-06-13T06:23:23.720Z,12.89
2018-06-13T06:24:23.450Z,12.95
2018-06-13T06:25:23.441Z,12.88
2018-06-13T06:26:23.693Z,12.86
2018-06-13T06:27:23.435Z,12.88
2018-06-13T06:28:23.425Z,12.83
2018-06-13T06:29:23.160Z,12.77
2018-06-13T06:30:23.664Z,12.8
2018-06-13T06:31:23.658Z,12.88
2018-06-13T06:32:23.392Z,12.84
2018-06-13T06:33:23.640Z,12.86
2018-06-13T06:34:23.375Z,12.96
2018-06-13T06:35:23.367Z,12.91
2018-06-13T06:36:23.625Z,12.96
2018-06-13T06:37:23.356Z,12.84
2018-06-13T06:38:23.602Z,12.88
2018-06-13T06:39:23.341Z,12.78
2018-06-13T06:40:23.332Z,12.76
2018-06-13T06:41:23.327Z,12.76
2018-06-13T06:42:23.574Z,12.66
2018-06-13T06:43:23.310Z,12.59
2018-06-13T06:44:23.305Z,12.62
2018-06-13T06:45:23.560Z,12.7
2018-06-13T06:46:23.545Z,12.76
2018-06-13T06:47:23.545Z,12.77
2018-06-13T06:48:23.535Z,12.89
2018-06-13T06:49:23.269Z,12.77
2018-06-13T06:50:23.527Z,12.83
2018-06-13T06:51:23.519Z,12.81
2018-06-13T06:52:23.245Z,12.81
2018-06-13T06:53:23.517Z,12.77
2018-06-13T06:54:23.501Z,12.71
2018-06-13T06:55:23.258Z,12.77
2018-06-13T06:56:23.483Z,12.69
2018-06-13T06:57:23.471Z,12.77
2018-06-13T06:58:23.463Z,12.73
2018-06-13T06:59:23.453Z,12.69
2018-06-13T07:00:23.446Z,12.58
2018-06-13T07:01:23.437Z,12.58
2018-06-13T07:02:23.432Z,12.55
2018-06-13T07:03:23.432Z,12.59
2018-06-13T07:04:22.901Z,12.63
2018-06-13T07:05:23.405Z,12.62
2018-06-13T07:06:23.401Z,12.61
2018-06-13T07:07:23.144Z,12.55
2018-06-13T07:08:23.130Z,12.7
2018-06-13T07:09:23.385Z,12.69
2018-06-13T07:10:23.369Z,12.74
2018-06-13T07:11:23.364Z,12.91
2018-06-13T07:12:23.370Z,12.95
2018-06-13T07:13:23.350Z,12.98
2018-06-13T07:14:23.338Z,12.95
2018-06-13T07:15:23.342Z,12.99
2018-06-13T07:16:23.072Z,12.96
2018-06-13T07:17:23.060Z,12.96
2018-06-13T07:18:23.315Z,13.13
2018-06-13T07:19:23.351Z,13.06
2018-06-13T07:20:23.046Z,13.13
2018-06-13T07:21:23.297Z,13.03
2018-06-13T07:22:23.285Z,13.14
2018-06-13T07:23:23.279Z,13.17
2018-06-13T07:24:23.018Z,13.27
2018-06-13T07:25:23.009Z,13.13
2018-06-13T07:26:23.257Z,13.25
2018-06-13T07:27:23.246Z,13.21
2018-06-13T07:28:22.983Z,13.25
2018-06-13T07:29:23.233Z,13.28
2018-06-13T07:30:23.224Z,13.47
2018-06-13T07:31:23.223Z,13.47
2018-06-13T07:32:23.211Z,13.54
2018-06-13T07:33:22.697Z,13.62
2018-06-13T07:34:23.206Z,13.65
2018-06-13T07:35:23.188Z,13.84
2018-06-13T07:36:22.942Z,13.83
2018-06-13T07:37:23.187Z,13.91
2018-06-13T07:38:22.919Z,13.86
2018-06-13T07:39:23.172Z,13.79
2018-06-13T07:40:23.166Z,13.75
2018-06-13T07:41:23.166Z,13.81
2018-06-13T07:42:22.890Z,13.76
2018-06-13T07:43:23.139Z,13.78
2018-06-13T07:44:22.879Z,13.84
2018-06-13T07:45:23.131Z,14.02
2018-06-13T07:46:22.870Z,14.05
2018-06-13T07:47:23.120Z,14.05
2018-06-13T07:48:23.111Z,14.02
2018-06-13T07:49:23.100Z,14.02
2018-06-13T07:50:23.104Z,14.02
2018-06-13T07:51:22.833Z,14.08
2018-06-13T07:52:22.828Z,13.91
2018-06-13T07:53:22.824Z,13.78
2018-06-13T07:54:23.076Z,13.69
2018-06-13T07:55:23.067Z,13.54
2018-06-13T07:56:22.800Z,13.4
2018-06-13T07:57:23.093Z,13.37
2018-06-13T07:58:23.047Z,13.32
2018-06-13T07:59:22.785Z,13.39
2018-06-13T08:00:23.035Z,13.42
2018-06-13T08:01:23.030Z,13.32
2018-06-13T08:02:23.252Z,13.42
2018-06-13T08:03:22.757Z,13.29
2018-06-13T08:04:23.005Z,13.29
2018-06-13T08:05:23.000Z,13.35
2018-06-13T08:06:22.991Z,13.35
2018-06-13T08:07:22.986Z,13.28
2018-06-13T08:08:23.195Z,13.17
2018-06-13T08:09:22.974Z,13.25
2018-06-13T08:10:22.964Z,13.16
2018-06-13T08:11:22.703Z,13.11
2018-06-13T08:12:22.953Z,13.16
2018-06-13T08:13:22.690Z,13.06
2018-06-13T08:14:22.940Z,12.92
2018-06-13T08:15:22.935Z,12.94
2018-06-13T08:16:22.921Z,12.91
2018-06-13T08:17:22.658Z,12.91
2018-06-13T08:18:22.913Z,12.91
2018-06-13T08:19:22.907Z,12.94
2018-06-13T08:20:22.900Z,12.91
2018-06-13T08:21:22.635Z,12.95
2018-06-13T08:22:22.883Z,12.98
2018-06-13T08:23:22.874Z,12.96
2018-06-13T08:24:22.878Z,12.94
2018-06-13T08:25:22.866Z,13.03
2018-06-13T08:26:22.861Z,12.95
2018-06-13T08:27:22.851Z,12.99
2018-06-13T08:28:22.586Z,12.98
2018-06-13T08:29:22.834Z,12.91
2018-06-13T08:30:22.835Z,12.96
2018-06-13T08:31:22.564Z,12.94
2018-06-13T08:32:22.824Z,12.94
2018-06-13T08:33:22.813Z,12.94
2018-06-13T08:34:22.802Z,12.95
2018-06-13T08:35:22.542Z,12.84
2018-06-13T08:36:22.785Z,12.84
2018-06-13T08:37:22.783Z,12.8
2018-06-13T08:38:22.779Z,12.76
2018-06-13T08:39:22.767Z,12.66
2018-06-13T08:40:22.759Z,12.58
2018-06-13T08:41:22.496Z,12.55
2018-06-13T08:42:22.751Z,12.62
2018-06-13T08:43:22.480Z,12.56
2018-06-13T08:44:22.728Z,12.56
2018-06-13T08:45:22.728Z,12.61
2018-06-13T08:46:22.718Z,12.51
2018-06-13T08:47:22.714Z,12.55
2018-06-13T08:48:22.446Z,12.48
2018-06-13T08:49:22.437Z,12.55
2018-06-13T08:50:22.437Z,12.56
2018-06-13T08:51:22.683Z,12.62
2018-06-13T08:52:22.679Z,12.71
2018-06-13T08:53:22.411Z,12.62
2018-06-13T08:54:22.657Z,12.65
2018-06-13T08:55:22.651Z,12.63
2018-06-13T08:56:22.387Z,12.73
2018-06-13T08:57:22.641Z,12.71
2018-06-13T08:58:22.630Z,12.62
2018-06-13T08:59:22.619Z,12.58
2018-06-13T09:00:22.617Z,12.61
2018-06-13T09:01:22.349Z,12.66
2018-06-13T09:02:22.600Z,12.62
2018-06-13T09:03:22.762Z,12.48
2018-06-13T09:04:22.578Z,12.47
2018-06-13T09:05:22.578Z,12.52
2018-06-13T09:06:22.582Z,12.51
2018-06-13T09:07:22.559Z,12.52
2018-06-13T09:08:22.552Z,12.43
2018-06-13T09:09:22.548Z,12.44
2018-06-13T09:10:22.281Z,12.41
2018-06-13T09:11:22.534Z,12.31
2018-06-13T09:12:22.527Z,12.36
2018-06-13T09:13:22.515Z,12.28
2018-06-13T09:14:22.252Z,12.33
2018-06-13T09:15:22.503Z,12.44
2018-06-13T09:16:22.496Z,12.38
2018-06-13T09:17:22.485Z,12.41
2018-06-13T09:18:22.491Z,12.45
2018-06-13T09:19:22.471Z,12.62
2018-06-13T09:20:22.209Z,12.56
2018-06-13T09:21:22.455Z,12.63
2018-06-13T09:22:22.482Z,12.66
2018-06-13T09:23:22.182Z,12.71
2018-06-13T09:24:22.178Z,12.7
2018-06-13T09:25:22.427Z,12.81
2018-06-13T09:26:22.424Z,12.94
2018-06-13T09:27:22.417Z,12.92
2018-06-13T09:28:22.409Z,12.96
2018-06-13T09:29:22.401Z,12.95
2018-06-13T09:30:22.397Z,13.03
2018-06-13T09:31:22.533Z,13.06
2018-06-13T09:32:22.381Z,13.09
2018-06-13T09:33:22.111Z,13.27
2018-06-13T09:34:22.109Z,13.28
2018-06-13T09:35:22.097Z,13.45
2018-06-13T09:36:22.086Z,13.55
2018-06-13T09:37:22.461Z,13.72
2018-06-13T09:38:22.335Z,13.93
2018-06-13T09:39:22.327Z,14.09
2018-06-13T09:40:22.316Z,14.3
2018-06-13T09:41:22.310Z,14.31
2018-06-13T09:42:22.319Z,14.36
2018-06-13T09:43:22.301Z,14.46
2018-06-13T09:44:22.301Z,14.57
2018-06-13T09:45:22.288Z,14.66
2018-06-13T09:46:22.285Z,14.71
2018-06-13T09:47:28.384Z,14.66
2018-06-13T09:48:22.280Z,14.51
2018-06-13T09:49:22.270Z,14.53
2018-06-13T09:50:22.264Z,14.44
2018-06-13T09:51:22.254Z,14.27
2018-06-13T09:52:21.985Z,14.12
2018-06-13T09:53:22.238Z,13.97
2018-06-13T09:54:21.983Z,13.86
2018-06-13T09:55:22.223Z,13.73
2018-06-13T09:56:22.218Z,13.81
2018-06-13T09:57:21.954Z,13.72
2018-06-13T09:58:22.202Z,13.68
2018-06-13T09:59:22.198Z,13.6
2018-06-13T10:00:21.682Z,13.6
2018-06-13T10:01:21.930Z,13.54
2018-06-13T10:02:22.184Z,13.57
2018-06-13T10:03:22.181Z,13.42
2018-06-13T10:04:21.654Z,13.45
2018-06-13T10:05:21.902Z,13.44
2018-06-13T10:06:22.154Z,13.32
2018-06-13T10:07:22.164Z,13.39
2018-06-13T10:08:22.150Z,13.31
2018-06-13T10:09:22.135Z,13.37
2018-06-13T10:10:21.879Z,13.29
2018-06-13T10:11:22.369Z,13.36
2018-06-13T10:12:22.118Z,13.28
2018-06-13T10:13:22.107Z,13.39
2018-06-13T10:14:22.105Z,13.29
2018-06-13T10:15:21.579Z,13.24
2018-06-13T10:16:21.834Z,13.16
2018-06-13T10:17:21.570Z,13.16
2018-06-13T10:18:22.078Z,13.13
2018-06-13T10:19:22.070Z,13.11
2018-06-13T10:20:21.804Z,13.19
2018-06-13T10:21:22.062Z,13.24
2018-06-13T10:22:22.154Z,13.25
2018-06-13T10:23:22.045Z,13.36
2018-06-13T10:24:22.041Z,13.4
2018-06-13T10:25:22.059Z,13.4
2018-06-13T10:26:22.023Z,13.5
2018-06-13T10:27:21.503Z,13.47
2018-06-13T10:28:22.008Z,13.55
2018-06-13T10:29:21.743Z,13.73
2018-06-13T10:30:21.992Z,13.69
2018-06-13T10:31:21.986Z,13.84
2018-06-13T10:32:21.979Z,13.91
2018-06-13T10:33:21.980Z,13.95
2018-06-13T10:34:22.166Z,14.02
2018-06-13T10:35:21.960Z,14.09
2018-06-13T10:36:21.960Z,14.11
2018-06-13T10:37:21.695Z,14.03
2018-06-13T10:38:21.683Z,14.02
2018-06-13T10:39:21.939Z,13.94
2018-06-13T10:40:21.677Z,13.9
2018-06-13T10:41:21.666Z,13.91
2018-06-13T10:42:21.664Z,14.05
2018-06-13T10:43:21.916Z,14.12
2018-06-13T10:44:21.908Z,14.09
2018-06-13T10:45:21.642Z,14.3
2018-06-13T10:46:21.639Z,14.31
2018-06-13T10:47:21.898Z,14.38
2018-06-13T10:48:21.930Z,14.51
2018-06-13T10:49:21.618Z,14.39
2018-06-13T10:50:21.612Z,14.44
2018-06-13T10:51:21.867Z,14.45
2018-06-13T10:52:21.866Z,14.51
2018-06-13T10:53:21.846Z,14.53
2018-06-13T10:54:21.585Z,14.63
2018-06-13T10:55:21.839Z,14.89
2018-06-13T10:56:21.578Z,15.07
2018-06-13T10:57:21.571Z,15.22
2018-06-13T10:58:21.826Z,15.41
2018-06-13T10:59:21.816Z,15.63
2018-06-13T11:00:21.553Z,15.84
2018-06-13T11:01:21.805Z,16.07
2018-06-13T11:02:21.804Z,16.26
2018-06-13T11:03:21.541Z,16.22
2018-06-13T11:04:21.788Z,16.47
2018-06-13T11:05:21.786Z,16.76
2018-06-13T11:06:21.785Z,16.88
2018-06-13T11:07:21.521Z,16.94
2018-06-13T11:08:21.774Z,16.87
2018-06-13T11:09:21.511Z,16.8
2018-06-13T11:10:21.765Z,16.84
2018-06-13T11:11:21.505Z,16.82
2018-06-13T11:12:21.500Z,16.69
2018-06-13T11:13:21.752Z,16.63
2018-06-13T11:14:21.491Z,16.54
2018-06-13T11:15:21.493Z,16.37
2018-06-13T11:16:21.746Z,16.32
2018-06-13T11:17:21.736Z,16.32
2018-06-13T11:18:21.737Z,16.34
2018-06-13T11:19:21.731Z,16.33
2018-06-13T11:20:21.247Z,16.22
2018-06-13T11:21:21.723Z,16.14
2018-06-13T11:22:21.709Z,16.14
2018-06-13T11:23:21.714Z,16.16
2018-06-13T11:24:21.452Z,16.07
2018-06-13T11:25:21.703Z,15.92
2018-06-13T11:26:21.702Z,15.88
2018-06-13T11:27:21.691Z,15.86
2018-06-13T11:28:21.687Z,15.84
2018-06-13T11:29:21.424Z,15.8
2018-06-13T11:30:21.680Z,15.73
2018-06-13T11:31:21.678Z,15.73
2018-06-13T11:32:21.415Z,15.65
2018-06-13T11:33:21.157Z,15.58
2018-06-13T11:34:21.666Z,15.58
2018-06-13T11:35:21.405Z,15.58
2018-06-13T11:36:21.400Z,15.71
2018-06-13T11:37:21.647Z,15.65
2018-06-13T11:38:21.643Z,15.73
2018-06-13T11:39:21.642Z,15.74
2018-06-13T11:40:21.633Z,15.73
2018-06-13T11:41:21.721Z,15.88
2018-06-13T11:42:21.631Z,15.99
2018-06-13T11:43:21.659Z,16.07
2018-06-13T11:44:21.619Z,16.18
2018-06-13T11:45:21.616Z,16.22
2018-06-13T11:46:21.610Z,16.25
2018-06-13T11:47:21.619Z,16.26
2018-06-13T11:48:21.609Z,16.49
2018-06-13T11:49:21.606Z,16.59
2018-06-13T11:50:21.340Z,16.7
2018-06-13T11:51:21.588Z,16.73
2018-06-13T11:52:21.590Z,16.59
2018-06-13T11:53:21.329Z,16.65
2018-06-13T11:54:21.574Z,16.7
2018-06-13T11:55:21.572Z,16.77
2018-06-13T11:56:21.567Z,16.73
2018-06-13T11:57:21.309Z,16.85
2018-06-13T11:58:21.561Z,16.99
2018-06-13T11:59:21.556Z,17.03
2018-06-13T12:00:21.695Z,17.15
2018-06-13T12:01:21.550Z,17.21
2018-06-13T12:02:21.546Z,17.38
2018-06-13T12:03:21.549Z,17.4
2018-06-13T12:04:21.540Z,17.39
2018-06-13T12:05:21.278Z,17.35
2018-06-13T12:06:21.534Z,17.32
2018-06-13T12:07:21.270Z,17.49
2018-06-13T12:08:21.534Z,17.62
2018-06-13T12:09:21.526Z,17.55
2018-06-13T12:10:21.518Z,17.58
2018-06-13T12:11:21.271Z,17.4
2018-06-13T12:12:21.254Z,17.21
2018-06-13T12:13:21.250Z,17.07
2018-06-13T12:14:21.248Z,16.87
2018-06-13T12:15:21.501Z,16.66
2018-06-13T12:16:21.499Z,16.52
2018-06-13T12:17:21.249Z,16.27
2018-06-13T12:18:21.244Z,16.14
2018-06-13T12:19:21.484Z,15.98
2018-06-13T12:20:21.231Z,15.92
2018-06-13T12:21:21.224Z,15.67
2018-06-13T12:22:21.219Z,15.58
2018-06-13T12:23:21.212Z,15.41
2018-06-13T12:24:21.474Z,15.19
2018-06-13T12:25:21.464Z,15.13
2018-06-13T12:26:21.458Z,14.98
2018-06-13T12:27:21.455Z,14.79
2018-06-13T12:28:21.451Z,14.64
2018-06-13T12:29:21.194Z,14.49
2018-06-13T12:30:21.190Z,14.53
2018-06-13T12:31:21.432Z,14.46
2018-06-13T12:32:21.171Z,14.28
2018-06-13T12:33:20.918Z,14.26
2018-06-13T12:34:20.920Z,14.11
2018-06-13T12:35:21.416Z,14.11
2018-06-13T12:36:21.155Z,13.94
2018-06-13T12:37:21.465Z,13.79
2018-06-13T12:38:21.400Z,13.81
2018-06-13T12:39:21.393Z,13.86
2018-06-13T12:40:21.248Z,13.73
2018-06-13T12:41:20.870Z,13.76
2018-06-13T12:42:21.377Z,13.84
2018-06-13T12:43:21.375Z,13.86
2018-06-13T12:44:21.366Z,13.88
2018-06-13T12:45:21.362Z,13.95
2018-06-13T12:46:21.354Z,13.97
2018-06-13T12:47:21.349Z,13.95
2018-06-13T12:48:21.349Z,14.01
2018-06-13T12:49:21.340Z,14.12
2018-06-13T12:50:21.328Z,14.15
2018-06-13T12:51:21.326Z,14.33
2018-06-13T12:52:21.067Z,14.45
2018-06-13T12:53:21.309Z,14.51
2018-06-13T12:54:21.310Z,14.45